Burkettsville, Ohio
Current Conditions -  °F | °C
As of 6:15 AM on Tuesday 21 Oct 2014 (Local Time) from KVES Reporting Station
Overcast Overcast  
Wind Chill: 44°   Ceiling: 6000
Heat Index: 46°   Visibility: 10mi
Dew Point: 45°   Wind: 6mph
Humidity: 93%   Direction: 310°NW
Pressure: 29.95"   Gusts: NA
Location:  40.35°N, 84.64°W
Report Text: KVES 211015Z AUTO 31005KT 10SM OVC060 08/07 A2995 RMK AO2
Loading
Personal Weather Stations






























Interactive Weather Map
Tropical Storm Tracking
New forecast layout! Learn more

10-Day Weather Forecast

Advertisements
Track Severe Weather on mobile